Time;durP1;ratioP1;P1;durP2;ratioP2;P2;SDS_P1;SDS_P2;PMS_P1;PMS_P2;Temp;Humidity;BMP_temperature;BMP_pressure;BME280_temperature;BME280_humidity;BME280_pressure;Samples;Min_cycle;Max_cycle;Signal;HPM_P1;HPM_P2
2023/07/04 00:01:48;;;;;;;1.98;0.63;;;15.20;99.90;;;;;;4998577;28;20110;-75
2023/07/04 00:04:19;;;;;;;2.80;1.05;;;15.20;99.90;;;;;;4971543;28;20061;-74
2023/07/04 00:06:47;;;;;;;1.67;0.68;;;15.20;99.90;;;;;;4978677;28;20058;-74
2023/07/04 00:09:14;;;;;;;2.85;0.75;;;15.20;99.90;;;;;;4962770;28;20057;-75
2023/07/04 00:11:41;;;;;;;1.42;0.70;;;15.10;99.90;;;;;;4978259;28;20054;-74
2023/07/04 00:14:08;;;;;;;1.73;0.63;;;15.10;99.90;;;;;;4979514;28;20109;-75
2023/07/04 00:16:35;;;;;;;1.80;0.75;;;15.10;99.90;;;;;;4978456;28;20046;-77
2023/07/04 00:19:03;;;;;;;1.15;0.70;;;15.10;99.90;;;;;;4954758;28;20062;-74
2023/07/04 00:21:31;;;;;;;2.35;1.00;;;15.10;99.90;;;;;;4978660;28;20128;-74
2023/07/04 00:23:58;;;;;;;1.50;0.88;;;15.10;99.90;;;;;;4978932;28;20077;-74
2023/07/04 00:26:25;;;;;;;2.30;0.60;;;15.10;99.90;;;;;;4977898;28;20869;-74
2023/07/04 00:28:52;;;;;;;2.38;0.80;;;15.00;99.90;;;;;;4963481;28;20636;-74
2023/07/04 00:31:20;;;;;;;1.50;0.50;;;15.00;99.90;;;;;;4961390;28;20411;-74
2023/07/04 00:33:47;;;;;;;1.55;0.73;;;15.00;99.90;;;;;;4948417;28;20054;-74
2023/07/04 00:36:16;;;;;;;1.85;0.70;;;15.00;99.90;;;;;;4977692;28;20117;-74
2023/07/04 00:38:44;;;;;;;2.53;0.85;;;15.00;99.90;;;;;;4962076;28;20061;-74
2023/07/04 00:41:16;;;;;;;1.35;0.65;;;14.90;99.90;;;;;;4961127;28;20109;-74
2023/07/04 00:43:45;;;;;;;2.05;0.90;;;14.90;99.90;;;;;;4946000;28;20079;-75
2023/07/04 00:46:15;;;;;;;2.08;0.90;;;14.90;99.90;;;;;;4978380;28;20553;-75
2023/07/04 00:48:47;;;;;;;2.58;0.90;;;14.90;99.90;;;;;;4962119;28;20112;-75
2023/07/04 00:51:21;;;;;;;2.60;0.90;;;14.80;99.90;;;;;;4962100;28;20058;-75
2023/07/04 00:53:53;;;;;;;1.13;0.55;;;14.80;99.90;;;;;;4963271;28;20054;-76
2023/07/04 00:56:25;;;;;;;2.30;0.88;;;14.80;99.90;;;;;;4950475;28;20058;-76
2023/07/04 00:58:59;;;;;;;1.58;0.77;;;14.80;99.90;;;;;;4963610;28;20053;-75
2023/07/04 01:01:26;;;;;;;2.13;0.60;;;14.90;99.90;;;;;;4960678;28;20057;-74
2023/07/04 01:03:54;;;;;;;1.10;0.63;;;14.80;99.90;;;;;;4971200;28;20050;-74
2023/07/04 01:06:25;;;;;;;2.35;0.80;;;14.80;99.90;;;;;;4976542;28;20050;-76
2023/07/04 01:08:56;;;;;;;1.42;0.50;;;14.80;99.90;;;;;;4965399;28;20081;-73
2023/07/04 01:11:32;;;;;;;2.92;0.90;;;14.80;99.90;;;;;;4978126;28;20050;-74
2023/07/04 01:13:59;;;;;;;1.63;0.73;;;14.80;99.90;;;;;;4963935;28;20046;-73
2023/07/04 01:16:26;;;;;;;1.73;0.50;;;14.80;99.90;;;;;;4964066;28;20549;-74
2023/07/04 01:18:55;;;;;;;1.23;0.52;;;14.80;99.90;;;;;;4950816;28;20061;-74
2023/07/04 01:21:24;;;;;;;1.77;0.65;;;14.80;99.90;;;;;;4967156;28;20090;-74
2023/07/04 01:24:14;;;;;;;1.17;0.50;;;14.80;99.90;;;;;;4967116;28;20141;-74
2023/07/04 01:26:42;;;;;;;1.83;0.70;;;14.80;99.90;;;;;;4977386;28;20058;-74
2023/07/04 01:29:10;;;;;;;1.17;0.50;;;14.70;99.90;;;;;;4966986;28;20054;-74
2023/07/04 01:31:37;;;;;;;0.95;0.43;;;14.80;99.90;;;;;;4982446;28;20054;-74
2023/07/04 01:34:04;;;;;;;1.67;0.80;;;14.80;99.90;;;;;;4981240;28;20117;-74
2023/07/04 01:36:34;;;;;;;0.73;0.45;;;14.80;99.90;;;;;;4969496;28;20518;-74
2023/07/04 01:39:02;;;;;;;0.70;0.50;;;14.70;99.90;;;;;;4970131;28;20457;-74
2023/07/04 01:41:29;;;;;;;1.02;0.70;;;14.80;99.90;;;;;;4987171;28;20371;-74
2023/07/04 01:44:02;;;;;;;0.95;0.60;;;14.80;99.90;;;;;;4987039;28;20046;-75
2023/07/04 01:46:30;;;;;;;0.85;0.60;;;14.80;99.90;;;;;;4970556;28;20063;-74
2023/07/04 01:48:56;;;;;;;2.10;0.90;;;14.70;99.90;;;;;;4985569;28;20058;-74
2023/07/04 01:51:25;;;;;;;1.38;0.70;;;14.70;99.90;;;;;;4969167;28;20089;-75
2023/07/04 01:53:52;;;;;;;1.58;0.80;;;14.70;99.90;;;;;;4953756;28;20043;-73
2023/07/04 01:56:19;;;;;;;1.45;0.75;;;14.70;99.90;;;;;;4985134;28;20050;-74
2023/07/04 01:58:46;;;;;;;1.88;0.88;;;14.80;99.90;;;;;;4985432;28;20104;-73
2023/07/04 02:01:13;;;;;;;1.63;0.65;;;14.70;99.90;;;;;;4985788;28;20552;-73
2023/07/04 02:03:39;;;;;;;1.27;0.68;;;14.80;99.90;;;;;;5003485;28;20057;-72
2023/07/04 02:06:07;;;;;;;1.77;0.60;;;14.80;99.90;;;;;;4989477;28;20046;-73
2023/07/04 02:08:33;;;;;;;1.23;0.50;;;14.70;99.90;;;;;;5013324;28;20077;-72
2023/07/04 02:11:00;;;;;;;1.15;0.63;;;14.70;99.90;;;;;;5017533;28;20131;-72
2023/07/04 02:13:30;;;;;;;1.48;0.60;;;14.70;99.90;;;;;;5014233;28;20512;-74
2023/07/04 02:15:57;;;;;;;1.20;0.70;;;14.70;99.90;;;;;;5026137;28;20073;-73
2023/07/04 02:18:25;;;;;;;1.88;0.70;;;14.70;99.90;;;;;;5015270;28;20053;-73
2023/07/04 02:20:52;;;;;;;1.05;0.63;;;14.70;99.90;;;;;;5016577;28;20084;-73
2023/07/04 02:23:19;;;;;;;1.05;0.50;;;14.70;99.90;;;;;;5014495;28;20428;-73
2023/07/04 02:25:45;;;;;;;1.20;0.63;;;14.60;99.90;;;;;;5006518;28;20054;-73
2023/07/04 02:28:12;;;;;;;1.55;0.75;;;14.60;99.90;;;;;;4991886;28;20760;-74
2023/07/04 02:30:39;;;;;;;1.25;0.52;;;14.60;99.90;;;;;;5008731;28;20386;-74
2023/07/04 02:33:06;;;;;;;1.58;0.95;;;14.60;99.90;;;;;;4983197;28;20054;-74
2023/07/04 02:35:33;;;;;;;4.00;1.08;;;14.60;99.90;;;;;;5006055;28;20402;-74
2023/07/04 02:37:59;;;;;;;1.65;0.95;;;14.60;99.90;;;;;;4971612;28;20049;-74
2023/07/04 02:40:26;;;;;;;3.13;0.77;;;14.60;99.90;;;;;;4972601;28;20116;-74
2023/07/04 02:42:53;;;;;;;2.05;0.77;;;14.50;99.90;;;;;;5005589;28;20065;-74
2023/07/04 02:45:19;;;;;;;0.90;0.35;;;14.50;99.90;;;;;;5012028;28;20045;-74
2023/07/04 02:47:47;;;;;;;1.70;0.75;;;14.60;99.90;;;;;;5014822;28;20108;-74
2023/07/04 02:50:14;;;;;;;3.75;0.82;;;14.60;99.90;;;;;;4991616;28;20137;-74
2023/07/04 02:52:40;;;;;;;2.50;0.95;;;14.50;99.90;;;;;;4975140;28;20710;-73
2023/07/04 02:55:07;;;;;;;1.13;0.50;;;14.50;99.90;;;;;;4988131;28;20448;-73
2023/07/04 02:57:34;;;;;;;1.73;0.88;;;14.50;99.90;;;;;;4987847;28;20050;-74
2023/07/04 03:00:01;;;;;;;0.90;0.60;;;14.50;99.90;;;;;;4991075;28;20037;-73
2023/07/04 03:02:28;;;;;;;2.00;0.65;;;14.50;99.90;;;;;;5023347;28;20058;-74
2023/07/04 03:04:57;;;;;;;1.70;0.70;;;14.60;99.90;;;;;;5007601;28;20093;-73
2023/07/04 03:07:25;;;;;;;1.85;0.80;;;14.50;99.90;;;;;;5014010;28;20128;-74
2023/07/04 03:09:52;;;;;;;1.15;0.68;;;14.50;99.90;;;;;;5015560;28;20096;-73
2023/07/04 03:12:18;;;;;;;1.98;0.82;;;14.50;99.90;;;;;;5022226;28;20133;-73
2023/07/04 03:14:45;;;;;;;1.65;0.70;;;14.50;99.90;;;;;;4972021;28;20049;-73
2023/07/04 03:17:12;;;;;;;2.35;0.93;;;14.60;99.90;;;;;;5007959;28;20077;-74
2023/07/04 03:19:39;;;;;;;2.13;0.80;;;14.50;99.90;;;;;;5006745;28;20057;-73
2023/07/04 03:22:05;;;;;;;2.85;1.05;;;14.60;99.90;;;;;;5006759;28;20487;-74
2023/07/04 03:24:32;;;;;;;2.10;0.93;;;14.50;99.90;;;;;;5010996;28;20133;-74
2023/07/04 03:26:59;;;;;;;1.77;0.95;;;14.50;99.90;;;;;;5021334;28;20505;-74
2023/07/04 03:29:26;;;;;;;1.55;0.50;;;14.50;99.90;;;;;;5026248;28;20049;-74
2023/07/04 03:31:52;;;;;;;1.38;0.68;;;14.60;99.90;;;;;;5008521;28;20045;-74
2023/07/04 03:34:19;;;;;;;1.23;0.80;;;14.60;99.90;;;;;;5020925;28;20053;-74
2023/07/04 03:36:46;;;;;;;1.40;0.60;;;14.60;99.90;;;;;;5013227;28;20346;-74
2023/07/04 03:39:13;;;;;;;1.83;0.70;;;14.50;99.90;;;;;;4988231;28;20049;-73
2023/07/04 03:41:39;;;;;;;2.30;0.88;;;14.60;99.90;;;;;;4976365;28;20127;-74
2023/07/04 03:44:06;;;;;;;1.25;0.63;;;14.50;99.90;;;;;;4993968;28;20573;-73
2023/07/04 03:46:33;;;;;;;2.22;0.90;;;14.50;99.90;;;;;;5006857;28;20050;-73
2023/07/04 03:49:01;;;;;;;1.50;0.90;;;14.50;99.90;;;;;;5006700;28;20049;-73
2023/07/04 03:51:27;;;;;;;3.35;1.40;;;14.50;99.90;;;;;;4986905;28;20049;-73
2023/07/04 03:53:54;;;;;;;1.35;0.70;;;14.50;99.90;;;;;;5017792;28;20489;-73
2023/07/04 03:56:21;;;;;;;2.25;0.90;;;14.50;99.90;;;;;;5007494;28;20052;-73
2023/07/04 03:58:48;;;;;;;1.95;0.70;;;14.50;99.90;;;;;;5007968;28;20570;-74
2023/07/04 04:01:15;;;;;;;1.52;0.70;;;14.50;99.90;;;;;;4992596;28;20049;-73
2023/07/04 04:03:42;;;;;;;2.17;0.82;;;14.50;99.90;;;;;;4998691;28;20147;-73
2023/07/04 04:06:09;;;;;;;2.55;0.82;;;14.50;99.90;;;;;;5026010;28;20075;-73
2023/07/04 04:08:36;;;;;;;1.15;0.52;;;14.50;99.90;;;;;;5025800;28;20132;-74
2023/07/04 04:11:02;;;;;;;0.88;0.50;;;14.50;99.90;;;;;;4992049;28;20045;-73
2023/07/04 04:13:30;;;;;;;1.52;0.80;;;14.50;99.90;;;;;;5015441;28;20064;-74
2023/07/04 04:15:57;;;;;;;1.10;0.60;;;14.50;99.90;;;;;;5008414;28;20064;-73
2023/07/04 04:18:24;;;;;;;0.90;0.60;;;14.50;99.90;;;;;;4991542;28;20132;-73
2023/07/04 04:20:51;;;;;;;1.20;0.70;;;14.50;99.90;;;;;;5025775;28;20060;-74
2023/07/04 04:23:18;;;;;;;0.60;0.40;;;14.60;99.90;;;;;;5001638;28;20453;-73
2023/07/04 04:25:45;;;;;;;1.85;0.50;;;14.50;99.90;;;;;;5024500;28;20119;-73
2023/07/04 04:28:12;;;;;;;2.42;0.85;;;14.50;99.90;;;;;;5024844;28;20093;-74
2023/07/04 04:30:40;;;;;;;1.02;0.75;;;14.50;99.90;;;;;;5017013;28;20093;-74
2023/07/04 04:33:07;;;;;;;1.63;0.60;;;14.50;99.90;;;;;;5012408;28;20053;-74
2023/07/04 04:35:33;;;;;;;2.13;0.70;;;14.50;99.90;;;;;;4989431;28;20556;-74
2023/07/04 04:38:00;;;;;;;2.13;1.27;;;14.50;99.90;;;;;;5021049;28;20084;-73
2023/07/04 04:40:29;;;;;;;1.15;0.57;;;14.50;99.90;;;;;;4990207;28;20409;-74
2023/07/04 04:42:56;;;;;;;1.98;0.85;;;14.40;99.90;;;;;;5013273;28;20057;-74
2023/07/04 04:45:28;;;;;;;2.67;1.48;;;14.40;99.90;;;;;;4988872;28;20049;-74
2023/07/04 04:47:55;;;;;;;1.42;0.90;;;14.30;99.90;;;;;;4984590;28;20050;-74
2023/07/04 04:50:23;;;;;;;1.38;0.70;;;14.30;99.90;;;;;;4990962;28;20392;-73
2023/07/04 04:52:50;;;;;;;2.08;0.93;;;14.30;99.90;;;;;;5000096;28;20413;-73
2023/07/04 04:55:17;;;;;;;1.52;0.90;;;14.40;99.90;;;;;;4958260;28;20076;-73
2023/07/04 04:57:44;;;;;;;2.30;0.73;;;14.40;99.90;;;;;;4974069;28;20157;-74
2023/07/04 05:00:12;;;;;;;1.10;0.60;;;14.40;99.90;;;;;;4989336;28;20057;-76
2023/07/04 05:02:39;;;;;;;1.95;0.80;;;14.50;99.90;;;;;;5006261;28;20069;-73
2023/07/04 05:05:06;;;;;;;2.22;1.00;;;14.40;99.90;;;;;;4971578;28;20446;-73
2023/07/04 05:07:33;;;;;;;1.58;0.80;;;14.50;99.90;;;;;;4970136;28;20136;-74
2023/07/04 05:10:02;;;;;;;2.25;0.80;;;14.50;99.90;;;;;;4989284;28;20129;-73
2023/07/04 05:12:28;;;;;;;1.73;0.80;;;14.50;99.90;;;;;;5004578;28;20058;-74
2023/07/04 05:14:55;;;;;;;0.95;0.55;;;14.60;99.90;;;;;;5020891;28;20049;-73
2023/07/04 05:17:23;;;;;;;0.45;0.45;;;14.60;99.90;;;;;;5018784;28;20053;-73
2023/07/04 05:19:50;;;;;;;1.23;0.55;;;14.60;99.90;;;;;;5013726;28;20215;-73
2023/07/04 05:22:17;;;;;;;2.08;0.85;;;14.70;99.90;;;;;;4970200;28;20054;-73
2023/07/04 05:24:44;;;;;;;1.95;0.63;;;14.70;99.90;;;;;;4989770;28;20073;-74
2023/07/04 05:27:11;;;;;;;1.05;0.70;;;14.70;99.90;;;;;;5014766;28;20088;-73
2023/07/04 05:29:37;;;;;;;0.88;0.60;;;14.70;99.90;;;;;;5010147;28;20049;-73
2023/07/04 05:32:04;;;;;;;1.40;0.60;;;14.70;99.90;;;;;;4988116;28;20553;-73
2023/07/04 05:34:31;;;;;;;1.70;0.68;;;14.70;99.90;;;;;;5010110;28;20046;-73
2023/07/04 05:37:01;;;;;;;1.88;0.88;;;14.70;99.90;;;;;;5006378;28;20140;-73
2023/07/04 05:39:28;;;;;;;1.35;0.65;;;14.70;99.90;;;;;;4988581;28;20093;-74
2023/07/04 05:41:55;;;;;;;0.68;0.52;;;14.70;99.90;;;;;;4986056;28;20115;-73
2023/07/04 05:44:22;;;;;;;1.05;0.68;;;14.80;99.90;;;;;;5015677;28;20132;-73
2023/07/04 05:46:51;;;;;;;1.35;0.77;;;14.80;99.90;;;;;;5005507;28;20092;-73
2023/07/04 05:49:18;;;;;;;2.67;0.77;;;14.90;99.90;;;;;;5005800;28;20085;-74
2023/07/04 05:51:45;;;;;;;1.92;0.80;;;14.90;99.90;;;;;;4974763;28;20468;-74
2023/07/04 05:54:11;;;;;;;2.70;1.00;;;15.00;99.90;;;;;;5015214;28;20092;-74
2023/07/04 05:56:38;;;;;;;2.05;0.70;;;15.00;99.90;;;;;;5025244;28;20091;-74
2023/07/04 05:59:05;;;;;;;2.15;0.88;;;15.10;99.90;;;;;;5018074;28;20045;-73
2023/07/04 06:01:40;;;;;;;1.40;0.70;;;15.10;99.90;;;;;;5015549;28;20058;-73
2023/07/04 06:04:08;;;;;;;1.00;0.55;;;15.20;99.90;;;;;;5001454;28;20057;-74
2023/07/04 06:06:39;;;;;;;1.70;0.68;;;15.20;99.90;;;;;;4986445;28;20054;-74
2023/07/04 06:09:12;;;;;;;1.67;0.60;;;15.30;99.90;;;;;;4994043;28;20054;-75
2023/07/04 06:11:43;;;;;;;2.07;0.87;;;15.40;99.90;;;;;;4959968;28;20536;-74
2023/07/04 06:14:10;;;;;;;1.98;0.88;;;15.50;99.90;;;;;;4974055;28;20066;-74
2023/07/04 06:16:37;;;;;;;2.13;0.93;;;15.50;99.90;;;;;;4988705;28;20048;-74
2023/07/04 06:19:04;;;;;;;1.75;0.80;;;15.60;99.90;;;;;;5005404;28;20052;-74
2023/07/04 06:21:31;;;;;;;1.70;1.00;;;15.60;99.90;;;;;;5004990;28;20056;-73
2023/07/04 06:24:10;;;;;;;1.88;0.77;;;15.70;99.90;;;;;;5003264;28;20082;-74
2023/07/04 06:26:37;;;;;;;0.90;0.60;;;15.80;99.90;;;;;;4984556;28;20490;-74
2023/07/04 06:29:04;;;;;;;2.20;0.60;;;16.00;99.90;;;;;;5001950;28;20524;-73
2023/07/04 06:31:31;;;;;;;1.60;0.90;;;16.10;99.90;;;;;;5003136;28;20508;-74
2023/07/04 06:33:58;;;;;;;1.17;0.73;;;16.20;99.90;;;;;;4990878;28;20073;-74
2023/07/04 06:36:25;;;;;;;1.77;0.80;;;16.20;99.90;;;;;;5000973;28;20588;-74
2023/07/04 06:38:52;;;;;;;2.35;0.98;;;16.30;99.90;;;;;;5005219;28;20110;-74
2023/07/04 06:41:19;;;;;;;1.73;0.60;;;16.30;99.90;;;;;;4972277;28;20046;-74
2023/07/04 06:43:46;;;;;;;1.75;0.80;;;16.30;99.90;;;;;;4987225;28;20057;-74
2023/07/04 06:46:17;;;;;;;1.15;0.70;;;16.40;99.90;;;;;;4972334;28;20061;-73
2023/07/04 06:48:48;;;;;;;2.28;0.80;;;16.50;99.90;;;;;;4986659;28;20149;-74
2023/07/04 06:51:17;;;;;;;1.02;0.73;;;16.60;99.90;;;;;;5005144;28;20045;-74
2023/07/04 06:53:44;;;;;;;1.45;0.60;;;16.60;99.90;;;;;;5004923;28;20050;-74
2023/07/04 06:56:21;;;;;;;1.77;0.98;;;16.70;99.90;;;;;;4994645;28;20052;-74
2023/07/04 06:58:53;;;;;;;1.80;0.98;;;16.70;99.90;;;;;;4983439;28;20054;-74
2023/07/04 07:01:22;;;;;;;2.63;0.90;;;16.70;99.90;;;;;;4995359;28;20080;-74
2023/07/04 07:03:50;;;;;;;1.75;1.00;;;16.80;99.90;;;;;;5008588;28;20159;-74
2023/07/04 07:06:17;;;;;;;1.42;0.88;;;16.90;99.90;;;;;;5020738;28;20096;-74
2023/07/04 07:08:44;;;;;;;1.20;0.70;;;17.00;99.90;;;;;;5011967;28;20062;-74
2023/07/04 07:11:13;;;;;;;0.93;0.70;;;17.10;99.90;;;;;;5005623;28;20045;-75
2023/07/04 07:13:40;;;;;;;1.55;0.90;;;17.20;99.90;;;;;;4968904;28;20583;-74
2023/07/04 07:16:11;;;;;;;1.50;0.73;;;17.10;99.90;;;;;;4978756;28;20427;-73
2023/07/04 07:18:39;;;;;;;1.08;0.70;;;17.10;99.90;;;;;;4997790;28;20049;-74
2023/07/04 07:21:08;;;;;;;1.60;0.85;;;17.10;99.90;;;;;;4990941;28;20501;-73
2023/07/04 07:23:36;;;;;;;1.65;1.05;;;17.20;99.90;;;;;;4982934;28;20108;-74
2023/07/04 07:26:03;;;;;;;1.00;0.80;;;17.30;99.90;;;;;;4981904;28;20533;-73
2023/07/04 07:28:31;;;;;;;1.52;1.00;;;17.30;99.90;;;;;;4984525;28;20062;-73
2023/07/04 07:31:04;;;;;;;1.73;0.90;;;17.40;99.90;;;;;;5009542;28;20047;-75
2023/07/04 07:33:32;;;;;;;1.02;0.80;;;17.40;99.90;;;;;;4997458;28;20050;-74
2023/07/04 07:35:59;;;;;;;2.13;0.88;;;17.30;99.90;;;;;;4989277;28;20091;-73
2023/07/04 07:38:26;;;;;;;1.65;0.95;;;17.30;99.90;;;;;;4982726;28;20063;-75
2023/07/04 07:40:53;;;;;;;1.83;0.70;;;17.30;99.90;;;;;;5003520;28;20069;-74
2023/07/04 07:43:20;;;;;;;1.42;0.82;;;17.50;99.90;;;;;;4982325;28;20054;-74
2023/07/04 07:45:47;;;;;;;1.83;1.10;;;17.50;99.90;;;;;;4996388;28;20068;-74
2023/07/04 07:48:14;;;;;;;1.63;1.00;;;17.50;99.90;;;;;;4998315;28;20053;-74
2023/07/04 07:50:41;;;;;;;1.75;0.75;;;17.40;99.90;;;;;;5002166;28;20054;-73
2023/07/04 07:53:08;;;;;;;1.48;0.90;;;17.40;99.90;;;;;;4972418;28;20081;-74
2023/07/04 07:55:35;;;;;;;1.48;0.90;;;17.50;99.90;;;;;;4963418;28;20996;-74
2023/07/04 07:58:02;;;;;;;2.30;0.93;;;17.80;99.90;;;;;;4999868;28;20046;-73
2023/07/04 08:00:29;;;;;;;1.10;0.70;;;18.00;99.90;;;;;;4999892;28;20537;-73
2023/07/04 08:02:56;;;;;;;2.03;0.80;;;18.10;99.90;;;;;;4997215;28;20064;-73
2023/07/04 08:05:23;;;;;;;1.30;0.95;;;18.20;99.90;;;;;;4982968;28;20100;-73
2023/07/04 08:07:50;;;;;;;1.50;0.70;;;18.20;99.90;;;;;;4996808;28;20057;-75
2023/07/04 08:10:17;;;;;;;1.25;0.90;;;18.10;99.90;;;;;;4964253;28;20601;-74
2023/07/04 08:12:44;;;;;;;1.08;0.80;;;18.10;99.90;;;;;;4978337;28;20050;-74
2023/07/04 08:15:11;;;;;;;2.75;1.00;;;18.30;99.90;;;;;;4996262;28;20132;-74
2023/07/04 08:17:38;;;;;;;1.23;0.70;;;18.40;99.90;;;;;;4983621;28;20060;-74
2023/07/04 08:20:05;;;;;;;1.30;0.77;;;18.60;99.90;;;;;;4997843;28;20062;-73
2023/07/04 08:22:32;;;;;;;1.20;0.85;;;18.70;99.90;;;;;;4980980;28;20054;-74
2023/07/04 08:25:00;;;;;;;1.08;0.63;;;18.80;99.90;;;;;;4981130;28;20201;-74
2023/07/04 08:27:26;;;;;;;1.52;0.90;;;18.90;99.90;;;;;;4985409;28;20054;-74
2023/07/04 08:29:53;;;;;;;1.42;0.85;;;18.90;99.90;;;;;;4988249;28;20088;-74
2023/07/04 08:32:20;;;;;;;1.08;0.60;;;18.80;99.90;;;;;;5002124;28;20111;-74
2023/07/04 08:34:47;;;;;;;0.85;0.60;;;18.80;99.90;;;;;;4999933;28;20054;-74
2023/07/04 08:37:14;;;;;;;1.40;0.82;;;18.90;99.90;;;;;;4984707;28;20092;-74
2023/07/04 08:39:45;;;;;;;1.08;0.80;;;18.90;99.90;;;;;;5000837;28;20049;-73
2023/07/04 08:42:14;;;;;;;2.50;1.10;;;19.00;99.90;;;;;;4985600;28;20073;-74
2023/07/04 08:44:44;;;;;;;1.45;0.88;;;18.90;99.90;;;;;;4969673;28;20523;-73
2023/07/04 08:47:17;;;;;;;1.30;0.77;;;19.00;99.90;;;;;;4984909;28;20054;-74
2023/07/04 08:49:50;;;;;;;1.58;1.10;;;19.20;99.90;;;;;;4984339;28;20144;-73
2023/07/04 08:52:24;;;;;;;1.15;0.63;;;19.30;99.70;;;;;;4984777;28;20057;-74
2023/07/04 08:54:51;;;;;;;1.20;0.60;;;19.30;99.80;;;;;;4984192;28;20111;-73
2023/07/04 08:57:36;;;;;;;1.85;0.80;;;19.30;99.90;;;;;;4984451;28;20132;-74
2023/07/04 09:00:20;;;;;;;1.92;0.90;;;19.30;99.70;;;;;;5001682;28;20061;-74
2023/07/04 09:02:56;;;;;;;1.15;0.77;;;19.10;99.70;;;;;;5000957;28;20062;-74
2023/07/04 09:05:56;;;;;;;1.38;0.68;;;19.10;99.90;;;;;;4984864;28;20041;-75
2023/07/04 09:08:50;;;;;;;2.80;1.00;;;19.00;99.50;;;;;;4967177;28;20141;-74
2023/07/04 09:11:17;;;;;;;0.98;0.68;;;19.00;99.50;;;;;;4965993;28;20501;-73
2023/07/04 09:13:45;;;;;;;3.58;0.93;;;19.20;99.60;;;;;;4988035;28;20183;-74
2023/07/04 09:16:18;;;;;;;0.90;0.70;;;19.30;99.10;;;;;;5000307;28;20112;-73
2023/07/04 09:19:05;;;;;;;1.95;0.77;;;19.30;99.30;;;;;;4999602;28;20838;-73
2023/07/04 09:21:32;;;;;;;1.73;0.90;;;19.50;98.80;;;;;;4999908;28;20050;-74
2023/07/04 09:24:01;;;;;;;0.82;0.68;;;19.50;98.80;;;;;;4986349;28;20077;-74
2023/07/04 09:26:49;;;;;;;1.40;0.80;;;19.80;99.20;;;;;;4983914;28;20049;-73
2023/07/04 09:29:17;;;;;;;0.90;0.80;;;19.90;98.70;;;;;;4981869;28;20060;-73
2023/07/04 09:31:45;;;;;;;2.42;1.02;;;20.10;98.00;;;;;;4981580;28;20054;-73
2023/07/04 09:34:33;;;;;;;1.60;0.93;;;20.10;97.80;;;;;;4990159;28;20049;-74
2023/07/04 09:37:01;;;;;;;2.58;0.88;;;20.00;97.60;;;;;;5000172;28;20050;-73
2023/07/04 09:39:44;;;;;;;1.88;0.95;;;19.90;97.80;;;;;;4981440;28;20050;-74
2023/07/04 09:42:22;;;;;;;1.42;0.90;;;19.90;97.70;;;;;;4984585;28;20086;-74
2023/07/04 09:45:11;;;;;;;1.08;0.75;;;20.00;97.90;;;;;;4953673;28;20058;-74
2023/07/04 09:47:43;;;;;;;1.85;0.90;;;20.20;98.00;;;;;;4958429;28;20157;-73
2023/07/04 09:50:22;;;;;;;1.17;0.85;;;20.20;97.00;;;;;;4983070;28;20151;-73
2023/07/04 09:53:04;;;;;;;1.63;1.13;;;20.20;97.30;;;;;;4983426;28;20068;-73
2023/07/04 09:55:31;;;;;;;1.75;1.20;;;20.10;97.90;;;;;;4964317;28;20148;-73
2023/07/04 09:58:18;;;;;;;1.35;0.90;;;20.10;97.50;;;;;;4963737;28;20732;-73
2023/07/04 10:00:59;;;;;;;1.38;0.82;;;20.00;97.90;;;;;;4965911;28;20077;-73
2023/07/04 10:03:26;;;;;;;1.20;0.77;;;20.10;97.60;;;;;;4977776;28;20057;-73
2023/07/04 10:05:53;;;;;;;1.17;0.75;;;20.10;97.90;;;;;;4984260;28;20141;-73
2023/07/04 10:08:19;;;;;;;1.30;0.98;;;20.10;97.40;;;;;;4982979;28;20092;-74
2023/07/04 10:10:51;;;;;;;1.27;0.85;;;20.10;97.80;;;;;;4983609;28;20757;-73
2023/07/04 10:13:35;;;;;;;1.35;0.93;;;20.10;97.60;;;;;;4983009;28;20045;-74
2023/07/04 10:16:13;;;;;;;;;;;20.00;97.60;;;;;;4984968;28;20660;-74
2023/07/04 10:18:40;;;;;;;1.48;0.80;;;20.00;97.80;;;;;;4998216;28;20771;-74
2023/07/04 10:21:06;;;;;;;1.45;0.93;;;20.10;97.80;;;;;;4999955;28;20089;-74
2023/07/04 10:23:33;;;;;;;1.42;0.90;;;20.10;97.70;;;;;;4982514;28;20089;-74
2023/07/04 10:26:00;;;;;;;1.42;0.82;;;20.10;98.10;;;;;;4983181;28;20112;-75
2023/07/04 10:28:27;;;;;;;1.70;0.90;;;20.00;98.10;;;;;;4984231;28;20050;-74
2023/07/04 10:30:57;;;;;;;0.95;0.80;;;19.80;98.60;;;;;;4987248;28;20054;-73
2023/07/04 10:33:46;;;;;;;1.42;0.90;;;19.80;98.50;;;;;;4997714;28;20049;-74
2023/07/04 10:36:14;;;;;;;1.60;0.90;;;20.00;98.40;;;;;;4960106;28;20050;-73
2023/07/04 10:38:46;;;;;;;1.05;0.70;;;20.40;98.30;;;;;;4999909;28;20057;-73
2023/07/04 10:41:30;;;;;;;1.00;0.82;;;20.80;97.70;;;;;;4990827;28;20126;-73
2023/07/04 10:44:03;;;;;;;1.02;0.70;;;21.00;97.60;;;;;;4982167;28;20072;-74
2023/07/04 10:46:39;;;;;;;1.70;0.80;;;21.10;96.80;;;;;;4982814;28;20053;-73
2023/07/04 10:49:08;;;;;;;2.05;1.15;;;21.20;96.60;;;;;;4982607;28;20080;-73
2023/07/04 10:51:37;;;;;;;2.00;1.30;;;21.20;96.90;;;;;;4960267;28;20861;-73
2023/07/04 10:54:04;;;;;;;2.17;1.40;;;21.00;96.40;;;;;;4979752;28;20054;-75
2023/07/04 10:56:32;;;;;;;2.15;1.30;;;20.80;96.60;;;;;;4966020;28;20116;-75
2023/07/04 10:59:10;;;;;;;2.55;1.15;;;20.60;97.70;;;;;;4976013;28;20111;-74
2023/07/04 11:01:40;;;;;;;1.38;1.27;;;20.50;98.20;;;;;;4963814;28;20117;-74
2023/07/04 11:04:14;;;;;;;2.08;0.90;;;20.50;98.30;;;;;;4980769;28;20066;-74
2023/07/04 11:06:42;;;;;;;2.38;1.20;;;20.30;98.50;;;;;;4982714;28;20057;-74
2023/07/04 11:09:14;;;;;;;1.67;1.17;;;20.20;98.10;;;;;;4982074;28;20624;-74
2023/07/04 11:11:44;;;;;;;3.28;1.30;;;20.10;98.90;;;;;;4981897;28;20050;-74
2023/07/04 11:14:11;;;;;;;1.20;0.80;;;20.10;99.20;;;;;;4981611;28;20099;-74
2023/07/04 11:16:39;;;;;;;1.67;1.23;;;20.10;99.40;;;;;;4965642;28;20049;-73
2023/07/04 11:19:19;;;;;;;1.85;1.35;;;20.00;99.50;;;;;;4981569;28;20050;-74
2023/07/04 11:22:10;;;;;;;2.70;1.50;;;20.10;99.90;;;;;;4982246;28;20085;-74
2023/07/04 11:24:51;;;;;;;2.53;1.17;;;19.90;99.90;;;;;;4982029;28;20074;-74
2023/07/04 11:27:25;;;;;;;2.30;1.40;;;19.70;99.90;;;;;;4981718;28;20054;-74
2023/07/04 11:29:55;;;;;;;3.72;1.40;;;19.60;99.90;;;;;;4982241;28;20108;-74
2023/07/04 11:32:32;;;;;;;1.95;1.38;;;19.50;99.90;;;;;;4999332;28;20073;-74
2023/07/04 11:35:11;;;;;;;2.03;1.27;;;19.50;99.90;;;;;;4998698;28;20128;-73
2023/07/04 11:37:52;;;;;;;2.90;1.60;;;19.70;99.90;;;;;;4994958;28;20046;-74
2023/07/04 11:40:23;;;;;;;2.22;1.35;;;19.90;99.90;;;;;;5000983;28;20053;-73
2023/07/04 11:43:04;;;;;;;2.42;1.40;;;20.00;99.90;;;;;;4983510;28;20046;-74
2023/07/04 11:45:31;;;;;;;2.28;1.00;;;20.20;99.90;;;;;;4968756;28;20457;-73
2023/07/04 11:48:06;;;;;;;1.98;1.20;;;20.20;99.90;;;;;;4983038;28;20050;-73
2023/07/04 11:50:38;;;;;;;2.03;1.10;;;20.20;99.90;;;;;;4984189;28;20105;-74
2023/07/04 11:53:16;;;;;;;1.67;1.27;;;20.20;99.90;;;;;;4953351;28;20056;-73
2023/07/04 11:55:43;;;;;;;1.17;0.90;;;20.20;99.90;;;;;;4972008;28;20409;-74
2023/07/04 11:58:10;;;;;;;2.17;1.15;;;20.10;99.90;;;;;;4986360;28;20045;-74
2023/07/04 12:00:37;;;;;;;1.30;1.10;;;19.90;99.90;;;;;;5004213;28;20525;-74
2023/07/04 12:03:19;;;;;;;1.80;1.20;;;19.60;99.90;;;;;;5003226;28;20057;-74
2023/07/04 12:05:54;;;;;;;3.73;1.47;;;19.30;99.90;;;;;;5002233;28;20053;-73
2023/07/04 12:08:42;;;;;;;2.03;1.20;;;18.90;99.90;;;;;;4967792;28;21116;-74
2023/07/04 12:11:14;;;;;;;1.95;1.27;;;18.40;99.90;;;;;;4970109;28;20073;-73
2023/07/04 12:13:40;;;;;;;2.72;1.20;;;18.00;99.90;;;;;;4970161;28;20183;-73
2023/07/04 12:16:07;;;;;;;2.05;1.30;;;17.80;99.90;;;;;;4986785;28;20100;-73
2023/07/04 12:18:37;;;;;;;2.05;1.20;;;17.60;99.90;;;;;;4986029;28;20054;-74
2023/07/04 12:21:04;;;;;;;2.50;1.38;;;17.40;99.90;;;;;;5004220;28;20061;-74
2023/07/04 12:23:31;;;;;;;2.22;1.20;;;17.20;99.90;;;;;;5001593;28;20644;-73
2023/07/04 12:25:59;;;;;;;1.65;1.25;;;17.30;99.90;;;;;;4983783;28;20365;-73
2023/07/04 12:28:28;;;;;;;1.88;1.10;;;17.50;99.90;;;;;;4984001;28;20057;-73
2023/07/04 12:30:59;;;;;;;1.98;1.10;;;17.70;99.90;;;;;;5004304;28;20093;-74
2023/07/04 12:33:47;;;;;;;1.50;1.10;;;17.90;99.90;;;;;;4988595;28;20073;-74
2023/07/04 12:36:15;;;;;;;2.35;1.27;;;18.20;99.90;;;;;;4986092;28;20078;-73
2023/07/04 12:38:47;;;;;;;2.42;1.58;;;18.40;99.90;;;;;;4970537;28;20050;-73
2023/07/04 12:41:18;;;;;;;2.03;1.42;;;18.80;99.90;;;;;;5003321;28;20057;-74
2023/07/04 12:43:50;;;;;;;2.83;1.38;;;19.10;99.90;;;;;;4969670;28;20496;-74
2023/07/04 12:46:20;;;;;;;1.98;1.50;;;19.20;99.90;;;;;;4984232;28;20454;-74
2023/07/04 12:48:50;;;;;;;2.03;1.40;;;19.10;99.90;;;;;;5001294;28;20132;-74
2023/07/04 12:51:21;;;;;;;1.85;1.05;;;19.00;99.90;;;;;;4971181;28;20196;-74
2023/07/04 12:53:48;;;;;;;1.55;0.98;;;18.80;99.90;;;;;;4983517;28;20138;-75
2023/07/04 12:56:15;;;;;;;1.50;1.08;;;18.70;99.90;;;;;;4966471;28;20061;-75
2023/07/04 12:58:42;;;;;;;2.53;1.13;;;18.70;99.90;;;;;;4966821;28;20050;-75
2023/07/04 13:01:10;;;;;;;2.63;1.40;;;18.80;99.90;;;;;;5001025;28;20054;-74